sensor_id;sensor_type;location;lat;lon;timestamp;temperature;humidity
40696;DHT22;40425;51.102;17.208;2023-04-06T00:01:27;0.00;99.90
40696;DHT22;40425;51.102;17.208;2023-04-06T00:06:28;0.00;99.90
40696;DHT22;40425;51.102;17.208;2023-04-06T00:11:29;-0.50;99.90
40696;DHT22;40425;51.102;17.208;2023-04-06T00:16:30;-0.60;99.90
40696;DHT22;40425;51.102;17.208;2023-04-06T00:21:31;-0.60;99.90
40696;DHT22;40425;51.102;17.208;2023-04-06T00:26:32;-0.50;99.90
40696;DHT22;40425;51.102;17.208;2023-04-06T00:31:33;-0.40;99.90
40696;DHT22;40425;51.102;17.208;2023-04-06T00:36:34;-0.30;99.90
40696;DHT22;40425;51.102;17.208;2023-04-06T00:41:35;-0.30;99.90
40696;DHT22;40425;51.102;17.208;2023-04-06T00:46:36;-0.40;99.90
40696;DHT22;40425;51.102;17.208;2023-04-06T00:51:37;-0.50;99.90
40696;DHT22;40425;51.102;17.208;2023-04-06T00:56:38;-0.40;99.90
40696;DHT22;40425;51.102;17.208;2023-04-06T01:01:39;-0.40;99.90
40696;DHT22;40425;51.102;17.208;2023-04-06T01:06:40;-0.30;99.90
40696;DHT22;40425;51.102;17.208;2023-04-06T01:11:41;-0.20;99.90
40696;DHT22;40425;51.102;17.208;2023-04-06T01:16:42;-0.20;99.90
40696;DHT22;40425;51.102;17.208;2023-04-06T01:21:43;-0.20;99.90
40696;DHT22;40425;51.102;17.208;2023-04-06T01:26:45;-0.20;99.90
40696;DHT22;40425;51.102;17.208;2023-04-06T01:31:46;-0.10;99.90
40696;DHT22;40425;51.102;17.208;2023-04-06T01:36:47;-0.10;99.90
40696;DHT22;40425;51.102;17.208;2023-04-06T01:41:48;-0.10;99.90
40696;DHT22;40425;51.102;17.208;2023-04-06T01:46:48;-0.20;99.90
40696;DHT22;40425;51.102;17.208;2023-04-06T01:51:50;-0.10;99.90
40696;DHT22;40425;51.102;17.208;2023-04-06T01:56:50;-0.20;99.90
40696;DHT22;40425;51.102;17.208;2023-04-06T02:01:53;-0.30;99.90
40696;DHT22;40425;51.102;17.208;2023-04-06T02:06:54;-0.50;99.90
40696;DHT22;40425;51.102;17.208;2023-04-06T02:11:55;-0.90;99.90
40696;DHT22;40425;51.102;17.208;2023-04-06T02:16:56;-1.20;99.90
40696;DHT22;40425;51.102;17.208;2023-04-06T02:21:57;-1.00;99.90
40696;DHT22;40425;51.102;17.208;2023-04-06T02:26:58;-0.90;99.90
40696;DHT22;40425;51.102;17.208;2023-04-06T02:32:00;-0.80;99.90
40696;DHT22;40425;51.102;17.208;2023-04-06T02:37:01;-0.70;99.90
40696;DHT22;40425;51.102;17.208;2023-04-06T02:42:02;-0.60;99.90
40696;DHT22;40425;51.102;17.208;2023-04-06T02:47:03;-0.60;99.90
40696;DHT22;40425;51.102;17.208;2023-04-06T02:52:04;-0.60;99.90
40696;DHT22;40425;51.102;17.208;2023-04-06T02:57:05;-0.60;99.90
40696;DHT22;40425;51.102;17.208;2023-04-06T03:02:06;-0.60;99.90
40696;DHT22;40425;51.102;17.208;2023-04-06T03:07:08;-0.60;99.90
40696;DHT22;40425;51.102;17.208;2023-04-06T03:12:09;-0.80;99.90
40696;DHT22;40425;51.102;17.208;2023-04-06T03:17:10;-0.80;99.90
40696;DHT22;40425;51.102;17.208;2023-04-06T03:22:14;-0.80;99.90
40696;DHT22;40425;51.102;17.208;2023-04-06T03:27:14;-0.70;99.90
40696;DHT22;40425;51.102;17.208;2023-04-06T03:32:15;-0.70;99.90
40696;DHT22;40425;51.102;17.208;2023-04-06T03:37:16;-0.70;99.90
40696;DHT22;40425;51.102;17.208;2023-04-06T03:42:17;-0.80;99.90
40696;DHT22;40425;51.102;17.208;2023-04-06T03:47:21;-0.80;99.90
40696;DHT22;40425;51.102;17.208;2023-04-06T03:52:22;-0.70;99.90
40696;DHT22;40425;51.102;17.208;2023-04-06T03:57:23;-0.70;99.90
40696;DHT22;40425;51.102;17.208;2023-04-06T04:02:24;-0.90;99.90
40696;DHT22;40425;51.102;17.208;2023-04-06T04:07:25;-0.90;99.90
40696;DHT22;40425;51.102;17.208;2023-04-06T04:12:26;-0.90;99.90
40696;DHT22;40425;51.102;17.208;2023-04-06T04:17:27;-1.00;99.90
40696;DHT22;40425;51.102;17.208;2023-04-06T04:22:28;-1.20;99.90
40696;DHT22;40425;51.102;17.208;2023-04-06T04:27:29;-1.20;99.90
40696;DHT22;40425;51.102;17.208;2023-04-06T04:32:30;-1.10;99.90
40696;DHT22;40425;51.102;17.208;2023-04-06T04:37:31;-1.10;99.90
40696;DHT22;40425;51.102;17.208;2023-04-06T04:42:32;-1.00;99.90
40696;DHT22;40425;51.102;17.208;2023-04-06T04:47:33;-1.10;99.90
40696;DHT22;40425;51.102;17.208;2023-04-06T04:52:34;-1.20;99.90
40696;DHT22;40425;51.102;17.208;2023-04-06T04:57:35;-0.80;99.90
40696;DHT22;40425;51.102;17.208;2023-04-06T05:02:35;-0.60;99.90
40696;DHT22;40425;51.102;17.208;2023-04-06T05:07:36;-0.50;99.90
40696;DHT22;40425;51.102;17.208;2023-04-06T05:12:37;-0.30;99.90
40696;DHT22;40425;51.102;17.208;2023-04-06T05:17:38;-0.20;99.90
40696;DHT22;40425;51.102;17.208;2023-04-06T05:22:39;-0.10;99.90
40696;DHT22;40425;51.102;17.208;2023-04-06T05:27:40;-0.20;99.90
40696;DHT22;40425;51.102;17.208;2023-04-06T05:32:41;0.00;99.90
40696;DHT22;40425;51.102;17.208;2023-04-06T05:37:45;0.20;99.90
40696;DHT22;40425;51.102;17.208;2023-04-06T05:42:46;0.10;99.90
40696;DHT22;40425;51.102;17.208;2023-04-06T05:47:47;0.30;99.90
40696;DHT22;40425;51.102;17.208;2023-04-06T05:52:48;0.40;99.90
40696;DHT22;40425;51.102;17.208;2023-04-06T05:57:49;0.70;99.90
40696;DHT22;40425;51.102;17.208;2023-04-06T06:02:50;0.90;99.90
40696;DHT22;40425;51.102;17.208;2023-04-06T06:07:51;1.20;99.90
40696;DHT22;40425;51.102;17.208;2023-04-06T06:12:52;1.30;99.90
40696;DHT22;40425;51.102;17.208;2023-04-06T06:17:53;1.50;99.90
40696;DHT22;40425;51.102;17.208;2023-04-06T06:22:54;1.70;99.90
40696;DHT22;40425;51.102;17.208;2023-04-06T06:27:56;1.70;99.90
40696;DHT22;40425;51.102;17.208;2023-04-06T06:32:58;1.80;99.90
40696;DHT22;40425;51.102;17.208;2023-04-06T06:38:00;2.00;99.90
40696;DHT22;40425;51.102;17.208;2023-04-06T06:43:06;2.10;99.90
40696;DHT22;40425;51.102;17.208;2023-04-06T06:48:07;2.30;99.90
40696;DHT22;40425;51.102;17.208;2023-04-06T06:53:08;2.30;99.90
40696;DHT22;40425;51.102;17.208;2023-04-06T06:58:09;2.50;99.90
40696;DHT22;40425;51.102;17.208;2023-04-06T07:03:10;2.50;99.90
40696;DHT22;40425;51.102;17.208;2023-04-06T07:08:11;2.50;99.90
40696;DHT22;40425;51.102;17.208;2023-04-06T07:13:11;2.60;99.90
40696;DHT22;40425;51.102;17.208;2023-04-06T07:18:12;2.50;99.90
40696;DHT22;40425;51.102;17.208;2023-04-06T07:23:13;2.50;99.90
40696;DHT22;40425;51.102;17.208;2023-04-06T07:28:14;2.50;99.90
40696;DHT22;40425;51.102;17.208;2023-04-06T07:33:16;2.60;99.90
40696;DHT22;40425;51.102;17.208;2023-04-06T07:38:16;2.80;99.90
40696;DHT22;40425;51.102;17.208;2023-04-06T07:43:17;2.80;99.90
40696;DHT22;40425;51.102;17.208;2023-04-06T07:48:18;3.00;99.90
40696;DHT22;40425;51.102;17.208;2023-04-06T07:53:19;3.10;99.90
40696;DHT22;40425;51.102;17.208;2023-04-06T07:58:20;3.10;99.90
40696;DHT22;40425;51.102;17.208;2023-04-06T08:03:21;3.30;99.90
40696;DHT22;40425;51.102;17.208;2023-04-06T08:08:25;3.60;99.90
40696;DHT22;40425;51.102;17.208;2023-04-06T08:13:28;3.80;99.90
40696;DHT22;40425;51.102;17.208;2023-04-06T08:18:29;4.00;99.90
40696;DHT22;40425;51.102;17.208;2023-04-06T08:23:30;4.00;99.90
40696;DHT22;40425;51.102;17.208;2023-04-06T08:28:31;4.20;99.90
40696;DHT22;40425;51.102;17.208;2023-04-06T08:33:35;4.40;99.90
40696;DHT22;40425;51.102;17.208;2023-04-06T08:38:37;4.70;99.90
40696;DHT22;40425;51.102;17.208;2023-04-06T08:43:47;4.60;99.80
40696;DHT22;40425;51.102;17.208;2023-04-06T08:48:48;4.80;99.90
40696;DHT22;40425;51.102;17.208;2023-04-06T08:53:50;5.10;99.90
40696;DHT22;40425;51.102;17.208;2023-04-06T08:58:53;5.10;99.00
40696;DHT22;40425;51.102;17.208;2023-04-06T09:03:58;5.00;98.00
40696;DHT22;40425;51.102;17.208;2023-04-06T09:09:00;5.10;97.10
40696;DHT22;40425;51.102;17.208;2023-04-06T09:14:01;5.30;96.40
40696;DHT22;40425;51.102;17.208;2023-04-06T09:19:04;5.30;94.80
40696;DHT22;40425;51.102;17.208;2023-04-06T09:24:07;5.50;96.90
40696;DHT22;40425;51.102;17.208;2023-04-06T09:29:08;5.70;95.30
40696;DHT22;40425;51.102;17.208;2023-04-06T09:34:21;5.80;94.10
40696;DHT22;40425;51.102;17.208;2023-04-06T09:39:23;5.80;94.50
40696;DHT22;40425;51.102;17.208;2023-04-06T09:44:24;5.90;93.60
40696;DHT22;40425;51.102;17.208;2023-04-06T09:49:30;6.10;94.10
40696;DHT22;40425;51.102;17.208;2023-04-06T09:54:31;5.90;93.90
40696;DHT22;40425;51.102;17.208;2023-04-06T09:59:43;6.00;95.70
40696;DHT22;40425;51.102;17.208;2023-04-06T10:05:07;6.30;91.60
40696;DHT22;40425;51.102;17.208;2023-04-06T10:10:12;6.20;95.50
40696;DHT22;40425;51.102;17.208;2023-04-06T10:15:16;6.20;93.30
40696;DHT22;40425;51.102;17.208;2023-04-06T10:20:47;6.00;91.50
40696;DHT22;40425;51.102;17.208;2023-04-06T10:26:00;6.20;92.10
40696;DHT22;40425;51.102;17.208;2023-04-06T10:31:05;6.50;92.20
40696;DHT22;40425;51.102;17.208;2023-04-06T10:36:13;6.30;90.10
40696;DHT22;40425;51.102;17.208;2023-04-06T10:41:17;6.10;85.30
40696;DHT22;40425;51.102;17.208;2023-04-06T10:46:25;6.30;91.00
40696;DHT22;40425;51.102;17.208;2023-04-06T10:51:27;6.30;85.00
40696;DHT22;40425;51.102;17.208;2023-04-06T10:56:29;6.40;88.20
40696;DHT22;40425;51.102;17.208;2023-04-06T11:01:32;6.60;87.40
40696;DHT22;40425;51.102;17.208;2023-04-06T11:06:33;6.50;86.50
40696;DHT22;40425;51.102;17.208;2023-04-06T11:11:38;6.60;86.20
40696;DHT22;40425;51.102;17.208;2023-04-06T11:16:40;6.70;88.40
40696;DHT22;40425;51.102;17.208;2023-04-06T11:21:45;6.60;83.80
40696;DHT22;40425;51.102;17.208;2023-04-06T11:26:54;6.70;84.90
40696;DHT22;40425;51.102;17.208;2023-04-06T11:32:00;6.80;84.60
40696;DHT22;40425;51.102;17.208;2023-04-06T11:37:03;6.90;85.10
40696;DHT22;40425;51.102;17.208;2023-04-06T11:42:07;6.80;84.50
40696;DHT22;40425;51.102;17.208;2023-04-06T11:47:09;6.70;83.20
40696;DHT22;40425;51.102;17.208;2023-04-06T11:52:20;6.80;84.90
40696;DHT22;40425;51.102;17.208;2023-04-06T11:57:22;7.00;86.60
40696;DHT22;40425;51.102;17.208;2023-04-06T12:02:26;7.00;82.40
40696;DHT22;40425;51.102;17.208;2023-04-06T12:07:29;7.00;85.10
40696;DHT22;40425;51.102;17.208;2023-04-06T12:12:30;7.20;82.00
40696;DHT22;40425;51.102;17.208;2023-04-06T12:17:31;7.10;86.20
40696;DHT22;40425;51.102;17.208;2023-04-06T12:22:32;7.20;87.70
40696;DHT22;40425;51.102;17.208;2023-04-06T12:27:33;7.40;79.70
40696;DHT22;40425;51.102;17.208;2023-04-06T12:32:34;7.50;81.50
40696;DHT22;40425;51.102;17.208;2023-04-06T12:37:35;7.50;79.30
40696;DHT22;40425;51.102;17.208;2023-04-06T12:42:38;7.50;77.90
40696;DHT22;40425;51.102;17.208;2023-04-06T12:47:41;7.40;79.00
40696;DHT22;40425;51.102;17.208;2023-04-06T12:52:42;7.50;80.90
40696;DHT22;40425;51.102;17.208;2023-04-06T12:57:44;7.70;77.30
40696;DHT22;40425;51.102;17.208;2023-04-06T13:19:13;7.90;73.00
40696;DHT22;40425;51.102;17.208;2023-04-06T13:24:14;7.90;77.00
40696;DHT22;40425;51.102;17.208;2023-04-06T13:29:16;7.90;72.00
40696;DHT22;40425;51.102;17.208;2023-04-06T13:34:17;8.00;77.80
40696;DHT22;40425;51.102;17.208;2023-04-06T13:39:18;8.00;71.50
40696;DHT22;40425;51.102;17.208;2023-04-06T13:44:20;7.90;73.30
40696;DHT22;40425;51.102;17.208;2023-04-06T13:49:21;7.90;74.30
40696;DHT22;40425;51.102;17.208;2023-04-06T13:54:22;7.80;70.80
40696;DHT22;40425;51.102;17.208;2023-04-06T13:59:23;7.60;72.70
40696;DHT22;40425;51.102;17.208;2023-04-06T14:04:24;7.60;73.80
40696;DHT22;40425;51.102;17.208;2023-04-06T14:09:25;7.80;74.20
40696;DHT22;40425;51.102;17.208;2023-04-06T14:14:27;8.00;78.10
40696;DHT22;40425;51.102;17.208;2023-04-06T14:19:28;8.00;73.60
40696;DHT22;40425;51.102;17.208;2023-04-06T14:24:28;8.10;72.80
40696;DHT22;40425;51.102;17.208;2023-04-06T14:29:30;8.20;76.50
40696;DHT22;40425;51.102;17.208;2023-04-06T14:34:30;8.20;75.70
40696;DHT22;40425;51.102;17.208;2023-04-06T14:39:31;8.10;70.70
40696;DHT22;40425;51.102;17.208;2023-04-06T14:44:33;8.20;74.70
40696;DHT22;40425;51.102;17.208;2023-04-06T14:49:34;8.30;77.30
40696;DHT22;40425;51.102;17.208;2023-04-06T14:54:35;8.30;70.80
40696;DHT22;40425;51.102;17.208;2023-04-06T14:59:36;8.50;72.50
40696;DHT22;40425;51.102;17.208;2023-04-06T15:04:39;8.40;72.70
40696;DHT22;40425;51.102;17.208;2023-04-06T15:09:40;8.30;69.10
40696;DHT22;40425;51.102;17.208;2023-04-06T15:14:41;8.30;70.40
40696;DHT22;40425;51.102;17.208;2023-04-06T15:19:42;8.10;70.80
40696;DHT22;40425;51.102;17.208;2023-04-06T15:24:42;8.10;69.80
40696;DHT22;40425;51.102;17.208;2023-04-06T15:29:43;8.30;71.90
40696;DHT22;40425;51.102;17.208;2023-04-06T15:34:44;8.10;71.90
40696;DHT22;40425;51.102;17.208;2023-04-06T15:39:45;8.10;73.00
40696;DHT22;40425;51.102;17.208;2023-04-06T15:44:46;8.10;72.80
40696;DHT22;40425;51.102;17.208;2023-04-06T15:49:47;8.20;74.30
40696;DHT22;40425;51.102;17.208;2023-04-06T15:54:48;8.00;72.60
40696;DHT22;40425;51.102;17.208;2023-04-06T15:59:49;7.80;73.60
40696;DHT22;40425;51.102;17.208;2023-04-06T16:05:00;7.90;73.10
40696;DHT22;40425;51.102;17.208;2023-04-06T16:10:03;8.00;75.60
40696;DHT22;40425;51.102;17.208;2023-04-06T16:15:06;7.90;73.30
40696;DHT22;40425;51.102;17.208;2023-04-06T16:20:07;7.90;74.10
40696;DHT22;40425;51.102;17.208;2023-04-06T16:25:09;7.90;73.10
40696;DHT22;40425;51.102;17.208;2023-04-06T16:30:11;7.80;74.10
40696;DHT22;40425;51.102;17.208;2023-04-06T16:35:12;7.80;74.30
40696;DHT22;40425;51.102;17.208;2023-04-06T16:40:13;7.80;75.70
40696;DHT22;40425;51.102;17.208;2023-04-06T16:45:14;7.70;75.40
40696;DHT22;40425;51.102;17.208;2023-04-06T16:50:15;7.70;76.40
40696;DHT22;40425;51.102;17.208;2023-04-06T16:55:16;7.50;76.10
40696;DHT22;40425;51.102;17.208;2023-04-06T17:00:17;7.50;79.90
40696;DHT22;40425;51.102;17.208;2023-04-06T17:05:18;7.40;80.40
40696;DHT22;40425;51.102;17.208;2023-04-06T17:10:24;7.20;78.70
40696;DHT22;40425;51.102;17.208;2023-04-06T17:15:25;7.20;82.80
40696;DHT22;40425;51.102;17.208;2023-04-06T17:20:27;7.20;80.00
40696;DHT22;40425;51.102;17.208;2023-04-06T17:25:28;7.10;83.80
40696;DHT22;40425;51.102;17.208;2023-04-06T17:30:29;7.10;81.60
40696;DHT22;40425;51.102;17.208;2023-04-06T17:35:32;7.00;80.30
40696;DHT22;40425;51.102;17.208;2023-04-06T17:40:33;7.00;81.70
40696;DHT22;40425;51.102;17.208;2023-04-06T17:45:35;6.90;81.80
40696;DHT22;40425;51.102;17.208;2023-04-06T17:50:37;6.90;81.10
40696;DHT22;40425;51.102;17.208;2023-04-06T17:55:38;6.80;83.10
40696;DHT22;40425;51.102;17.208;2023-04-06T18:00:39;6.80;84.40
40696;DHT22;40425;51.102;17.208;2023-04-06T18:05:40;6.70;84.30
40696;DHT22;40425;51.102;17.208;2023-04-06T18:10:41;6.70;84.40
40696;DHT22;40425;51.102;17.208;2023-04-06T18:15:45;6.70;84.80
40696;DHT22;40425;51.102;17.208;2023-04-06T18:20:46;6.70;85.80
40696;DHT22;40425;51.102;17.208;2023-04-06T18:25:47;6.60;83.60
40696;DHT22;40425;51.102;17.208;2023-04-06T18:30:48;6.60;87.60
40696;DHT22;40425;51.102;17.208;2023-04-06T18:35:49;6.40;88.80
40696;DHT22;40425;51.102;17.208;2023-04-06T18:40:50;6.40;90.10
40696;DHT22;40425;51.102;17.208;2023-04-06T18:45:51;6.40;90.80
40696;DHT22;40425;51.102;17.208;2023-04-06T18:50:56;6.40;91.50
40696;DHT22;40425;51.102;17.208;2023-04-06T18:56:01;6.30;91.70
40696;DHT22;40425;51.102;17.208;2023-04-06T19:01:03;6.30;92.10
40696;DHT22;40425;51.102;17.208;2023-04-06T19:06:04;6.30;92.40
40696;DHT22;40425;51.102;17.208;2023-04-06T19:11:08;6.20;92.80
40696;DHT22;40425;51.102;17.208;2023-04-06T19:16:09;6.20;92.30
40696;DHT22;40425;51.102;17.208;2023-04-06T19:21:28;6.30;91.80
40696;DHT22;40425;51.102;17.208;2023-04-06T19:26:29;6.30;91.60
40696;DHT22;40425;51.102;17.208;2023-04-06T19:31:32;6.30;92.50
40696;DHT22;40425;51.102;17.208;2023-04-06T19:36:33;6.20;91.50
40696;DHT22;40425;51.102;17.208;2023-04-06T19:41:33;6.20;92.10
40696;DHT22;40425;51.102;17.208;2023-04-06T19:46:34;6.20;91.00
40696;DHT22;40425;51.102;17.208;2023-04-06T19:51:35;6.10;91.40
40696;DHT22;40425;51.102;17.208;2023-04-06T19:56:36;6.20;91.30
40696;DHT22;40425;51.102;17.208;2023-04-06T20:01:37;6.30;91.60
40696;DHT22;40425;51.102;17.208;2023-04-06T20:06:38;6.20;91.00
40696;DHT22;40425;51.102;17.208;2023-04-06T20:11:39;6.20;91.20
40696;DHT22;40425;51.102;17.208;2023-04-06T20:16:39;6.20;91.90
40696;DHT22;40425;51.102;17.208;2023-04-06T20:21:40;6.10;91.60
40696;DHT22;40425;51.102;17.208;2023-04-06T20:26:43;6.20;91.60
40696;DHT22;40425;51.102;17.208;2023-04-06T20:31:44;6.10;91.40
40696;DHT22;40425;51.102;17.208;2023-04-06T20:36:45;6.10;92.00
40696;DHT22;40425;51.102;17.208;2023-04-06T20:41:46;6.10;91.80
40696;DHT22;40425;51.102;17.208;2023-04-06T20:46:47;6.10;92.70
40696;DHT22;40425;51.102;17.208;2023-04-06T20:51:49;6.00;92.40
40696;DHT22;40425;51.102;17.208;2023-04-06T20:56:50;6.00;93.60
40696;DHT22;40425;51.102;17.208;2023-04-06T21:01:51;6.00;94.60
40696;DHT22;40425;51.102;17.208;2023-04-06T21:06:52;5.90;93.60
40696;DHT22;40425;51.102;17.208;2023-04-06T21:11:53;6.00;94.10
40696;DHT22;40425;51.102;17.208;2023-04-06T21:16:54;5.90;94.70
40696;DHT22;40425;51.102;17.208;2023-04-06T21:21:59;5.90;95.20
40696;DHT22;40425;51.102;17.208;2023-04-06T21:27:00;5.80;95.20
40696;DHT22;40425;51.102;17.208;2023-04-06T21:32:00;5.80;95.10
40696;DHT22;40425;51.102;17.208;2023-04-06T21:37:01;5.80;94.90
40696;DHT22;40425;51.102;17.208;2023-04-06T21:42:03;5.80;95.70
40696;DHT22;40425;51.102;17.208;2023-04-06T21:47:04;5.80;96.00
40696;DHT22;40425;51.102;17.208;2023-04-06T21:52:05;5.70;95.90
40696;DHT22;40425;51.102;17.208;2023-04-06T21:57:06;5.70;96.30
40696;DHT22;40425;51.102;17.208;2023-04-06T22:02:07;5.80;96.00
40696;DHT22;40425;51.102;17.208;2023-04-06T22:07:08;5.80;96.50
40696;DHT22;40425;51.102;17.208;2023-04-06T22:12:08;5.70;96.00
40696;DHT22;40425;51.102;17.208;2023-04-06T22:17:09;5.70;96.50
40696;DHT22;40425;51.102;17.208;2023-04-06T22:22:10;5.80;97.10
40696;DHT22;40425;51.102;17.208;2023-04-06T22:27:11;5.70;95.80
40696;DHT22;40425;51.102;17.208;2023-04-06T22:32:12;5.70;96.40
40696;DHT22;40425;51.102;17.208;2023-04-06T22:37:13;5.60;96.40
40696;DHT22;40425;51.102;17.208;2023-04-06T22:42:14;5.10;99.90
40696;DHT22;40425;51.102;17.208;2023-04-06T22:47:15;4.70;99.90
40696;DHT22;40425;51.102;17.208;2023-04-06T22:52:16;4.70;99.90
40696;DHT22;40425;51.102;17.208;2023-04-06T22:57:17;4.70;99.90
40696;DHT22;40425;51.102;17.208;2023-04-06T23:02:18;4.70;99.90
40696;DHT22;40425;51.102;17.208;2023-04-06T23:07:18;4.70;99.90
40696;DHT22;40425;51.102;17.208;2023-04-06T23:12:19;4.70;99.90
40696;DHT22;40425;51.102;17.208;2023-04-06T23:17:20;4.70;99.90
40696;DHT22;40425;51.102;17.208;2023-04-06T23:22:21;4.50;99.90
40696;DHT22;40425;51.102;17.208;2023-04-06T23:27:22;4.40;99.90
40696;DHT22;40425;51.102;17.208;2023-04-06T23:32:23;4.40;99.90
40696;DHT22;40425;51.102;17.208;2023-04-06T23:37:24;4.30;99.90
40696;DHT22;40425;51.102;17.208;2023-04-06T23:42:26;4.30;99.90
40696;DHT22;40425;51.102;17.208;2023-04-06T23:47:27;4.20;99.90
40696;DHT22;40425;51.102;17.208;2023-04-06T23:52:27;4.20;99.90
40696;DHT22;40425;51.102;17.208;2023-04-06T23:57:29;4.20;99.90
